Terminal Aerodrome Forecast
Issued by NWS

Home | Current Version | Previous Version | Text Only | Print | Product List | Glossary On
Versions: 1 2 3 4 5 6 7 8 9 10 11 12 13 14 15 16 17 18 19
000
FTAK31 PAJN 221733
TAFAKT
TAF
PAKT 221733Z 2218/2318 13013G20KT 4SM -RA BR SCT006 OVC014
      WS020/17030KT
     FM222100 14010KT 4SM -RA BR OVC015
     FM230300 12008KT 6SM -RA BR OVC025
     FM231400 14010G18KT 4SM -RA BR OVC025
      AMD LTD TO CLD VIS AND WIND 2306/2315=

USA.gov is the U.S. government's official web portal to all federal, state and local government web resources and services.